イエローナイフ の空港の天気 - METARとTAF

イエローナイフ空港 ( CYZF / YZF ) - カナダ ノースウエスト準州イエローナイフ
飛行場実況気象(Metar)
観測時間06/25 07:00 MDT (06/25 13:00 UTC)
風向・風速北東 5m/s
視程10km以上
天気現象
全天の8割程度の雲 雲底高度 400m
気温12℃
湿度82%
気圧1011.7hPa
METARCYZF 251300Z 04010KT 15SM BKN013 12/09 A2985 RMK SC7 SLP117
過去の天気等 Google飛行場航空写真 Wunderground天気予報

過去48時間のMETAR

飛行場予報(TAF)
発表時間: 6/25 05:38 MDT (6/25 11:38 UTC)
予報対象時間: 25日6時 MDT ~ 26日6時 MDT
風向・風速北北東 5m/s
視程10km以上
全天の8割程度の雲 雲底高度 460m
全天の8割程度の雲 雲底高度 7320m
25日6時 MDT ~ 25日9時 MDT に一時的に
全天の4割程度の雲 雲底高度 460m
全天の8割程度の雲 雲底高度 7320m
25日7時 MDT ~ 25日9時 MDT に徐々に
風向・風速東北東 5m/s
25日9時 MDT から
風向・風速東北東 5m/s
視程10km以上
全天の8割程度の雲 雲底高度 1220m
25日9時 MDT ~ 25日15時 MDT に一時的に
全天の4割程度の雲 雲底高度 1220m
25日9時 MDT ~ 25日11時 MDT に徐々に
風向・風速東 5m/s
25日15時 MDT から
風向・風速東 8m/s 瞬間風速 13m/s
視程10km以上
全天の4割程度の雲 雲底高度 1520m
全天の4割程度の雲 雲底高度 7320m
25日15時 MDT ~ 25日18時 MDT に一時的に
全天の8割程度の雲 雲底高度 1520m
26日0時 MDT から
風向・風速東 9m/s 瞬間風速 14m/s
視程10km以上
少しの雲 雲底高度 1520m
TAF CYZF 251138Z 2512/2612 03010KT P6SM BKN015 BKN240
TEMPO 2512/2515 SCT015 BKN240
BECMG 2513/2515 06010KT
FM251500 06010KT P6SM BKN040
TEMPO 2515/2521 SCT040
BECMG 2515/2517 09010KT
FM252100 10015G25KT P6SM SCT050 SCT240
TEMPO 2521/2524 BKN050
FM260600 09018G28KT P6SM FEW050 RMK NXT FCST BY 251800Z